sensor_id;sensor_type;location;lat;lon;timestamp;P1;durP1;ratioP1;P2;durP2;ratioP2
21560;SDS011;10941;53.590;9.960;2023-06-04T00:00:08;57.95;;;7.95;;
21560;SDS011;10941;53.590;9.960;2023-06-04T00:02:35;59.55;;;7.95;;
21560;SDS011;10941;53.590;9.960;2023-06-04T00:05:01;58.63;;;8.65;;
21560;SDS011;10941;53.590;9.960;2023-06-04T00:07:28;59.30;;;8.80;;
21560;SDS011;10941;53.590;9.960;2023-06-04T00:09:55;56.20;;;7.90;;
21560;SDS011;10941;53.590;9.960;2023-06-04T00:12:21;57.30;;;8.00;;
21560;SDS011;10941;53.590;9.960;2023-06-04T00:14:47;57.10;;;8.50;;
21560;SDS011;10941;53.590;9.960;2023-06-04T00:17:14;56.60;;;7.90;;
21560;SDS011;10941;53.590;9.960;2023-06-04T00:19:40;56.95;;;7.30;;
21560;SDS011;10941;53.590;9.960;2023-06-04T00:22:07;59.25;;;9.40;;
21560;SDS011;10941;53.590;9.960;2023-06-04T00:24:34;61.78;;;11.15;;
21560;SDS011;10941;53.590;9.960;2023-06-04T00:27:00;61.15;;;9.73;;
21560;SDS011;10941;53.590;9.960;2023-06-04T00:29:27;58.75;;;10.57;;
21560;SDS011;10941;53.590;9.960;2023-06-04T00:31:53;59.60;;;10.15;;
21560;SDS011;10941;53.590;9.960;2023-06-04T00:34:19;60.97;;;9.70;;
21560;SDS011;10941;53.590;9.960;2023-06-04T00:36:46;63.75;;;9.07;;
21560;SDS011;10941;53.590;9.960;2023-06-04T00:39:12;61.72;;;9.52;;
21560;SDS011;10941;53.590;9.960;2023-06-04T00:41:38;61.05;;;10.10;;
21560;SDS011;10941;53.590;9.960;2023-06-04T00:44:05;59.80;;;10.55;;
21560;SDS011;10941;53.590;9.960;2023-06-04T00:46:32;58.38;;;9.80;;
21560;SDS011;10941;53.590;9.960;2023-06-04T00:48:58;58.90;;;10.65;;
21560;SDS011;10941;53.590;9.960;2023-06-04T00:51:25;60.40;;;11.90;;
21560;SDS011;10941;53.590;9.960;2023-06-04T00:53:52;59.13;;;11.40;;
21560;SDS011;10941;53.590;9.960;2023-06-04T00:56:19;61.20;;;10.15;;
21560;SDS011;10941;53.590;9.960;2023-06-04T00:58:46;57.65;;;10.25;;
21560;SDS011;10941;53.590;9.960;2023-06-04T01:03:43;60.03;;;8.07;;
21560;SDS011;10941;53.590;9.960;2023-06-04T01:06:13;57.17;;;7.13;;
21560;SDS011;10941;53.590;9.960;2023-06-04T01:08:48;56.90;;;8.50;;
21560;SDS011;10941;53.590;9.960;2023-06-04T01:11:14;57.47;;;9.05;;
21560;SDS011;10941;53.590;9.960;2023-06-04T01:13:41;56.67;;;7.03;;
21560;SDS011;10941;53.590;9.960;2023-06-04T01:16:07;55.95;;;6.70;;
21560;SDS011;10941;53.590;9.960;2023-06-04T01:18:37;59.55;;;8.55;;
21560;SDS011;10941;53.590;9.960;2023-06-04T01:21:06;59.08;;;8.02;;
21560;SDS011;10941;53.590;9.960;2023-06-04T01:23:46;58.75;;;8.13;;
21560;SDS011;10941;53.590;9.960;2023-06-04T01:26:13;57.70;;;8.73;;
21560;SDS011;10941;53.590;9.960;2023-06-04T01:28:39;59.85;;;7.85;;
21560;SDS011;10941;53.590;9.960;2023-06-04T01:31:06;56.65;;;7.13;;
21560;SDS011;10941;53.590;9.960;2023-06-04T01:33:34;58.22;;;7.13;;
21560;SDS011;10941;53.590;9.960;2023-06-04T01:36:01;56.13;;;7.32;;
21560;SDS011;10941;53.590;9.960;2023-06-04T01:38:28;57.95;;;8.90;;
21560;SDS011;10941;53.590;9.960;2023-06-04T01:40:55;59.50;;;9.20;;
21560;SDS011;10941;53.590;9.960;2023-06-04T01:43:26;61.90;;;9.40;;
21560;SDS011;10941;53.590;9.960;2023-06-04T01:45:53;59.10;;;9.30;;
21560;SDS011;10941;53.590;9.960;2023-06-04T01:48:22;56.90;;;6.93;;
21560;SDS011;10941;53.590;9.960;2023-06-04T01:50:50;57.35;;;6.68;;
21560;SDS011;10941;53.590;9.960;2023-06-04T01:53:17;58.10;;;7.72;;
21560;SDS011;10941;53.590;9.960;2023-06-04T01:55:43;58.58;;;9.15;;
21560;SDS011;10941;53.590;9.960;2023-06-04T01:58:10;58.47;;;7.88;;
21560;SDS011;10941;53.590;9.960;2023-06-04T02:00:37;59.35;;;11.82;;
21560;SDS011;10941;53.590;9.960;2023-06-04T02:03:03;59.60;;;10.45;;
21560;SDS011;10941;53.590;9.960;2023-06-04T02:05:29;57.67;;;8.73;;
21560;SDS011;10941;53.590;9.960;2023-06-04T02:07:57;59.00;;;9.68;;
21560;SDS011;10941;53.590;9.960;2023-06-04T02:10:27;58.88;;;10.77;;
21560;SDS011;10941;53.590;9.960;2023-06-04T02:12:59;60.10;;;9.57;;
21560;SDS011;10941;53.590;9.960;2023-06-04T02:15:27;61.00;;;12.55;;
21560;SDS011;10941;53.590;9.960;2023-06-04T02:17:56;58.70;;;10.75;;
21560;SDS011;10941;53.590;9.960;2023-06-04T02:20:29;57.30;;;9.50;;
21560;SDS011;10941;53.590;9.960;2023-06-04T02:22:56;62.42;;;9.63;;
21560;SDS011;10941;53.590;9.960;2023-06-04T02:25:23;60.63;;;11.10;;
21560;SDS011;10941;53.590;9.960;2023-06-04T02:27:50;59.63;;;8.98;;
21560;SDS011;10941;53.590;9.960;2023-06-04T02:30:17;56.88;;;7.60;;
21560;SDS011;10941;53.590;9.960;2023-06-04T02:32:46;57.72;;;8.05;;
21560;SDS011;10941;53.590;9.960;2023-06-04T02:35:16;57.75;;;9.05;;
21560;SDS011;10941;53.590;9.960;2023-06-04T02:37:43;57.97;;;8.88;;
21560;SDS011;10941;53.590;9.960;2023-06-04T02:40:11;63.00;;;13.20;;
21560;SDS011;10941;53.590;9.960;2023-06-04T02:42:37;62.40;;;16.33;;
21560;SDS011;10941;53.590;9.960;2023-06-04T02:45:04;58.30;;;7.75;;
21560;SDS011;10941;53.590;9.960;2023-06-04T02:47:31;56.92;;;8.18;;
21560;SDS011;10941;53.590;9.960;2023-06-04T02:49:58;57.42;;;9.05;;
21560;SDS011;10941;53.590;9.960;2023-06-04T02:52:24;57.42;;;8.75;;
21560;SDS011;10941;53.590;9.960;2023-06-04T02:54:53;60.35;;;9.05;;
21560;SDS011;10941;53.590;9.960;2023-06-04T02:57:20;56.80;;;9.52;;
21560;SDS011;10941;53.590;9.960;2023-06-04T02:59:47;58.30;;;8.13;;
21560;SDS011;10941;53.590;9.960;2023-06-04T03:02:13;58.50;;;8.00;;
21560;SDS011;10941;53.590;9.960;2023-06-04T03:04:41;56.08;;;7.75;;
21560;SDS011;10941;53.590;9.960;2023-06-04T03:07:08;62.05;;;12.25;;
21560;SDS011;10941;53.590;9.960;2023-06-04T03:09:37;57.58;;;8.13;;
21560;SDS011;10941;53.590;9.960;2023-06-04T03:12:03;62.22;;;8.32;;
21560;SDS011;10941;53.590;9.960;2023-06-04T03:14:30;61.97;;;14.38;;
21560;SDS011;10941;53.590;9.960;2023-06-04T03:17:02;60.03;;;12.40;;
21560;SDS011;10941;53.590;9.960;2023-06-04T03:19:33;60.15;;;11.40;;
21560;SDS011;10941;53.590;9.960;2023-06-04T03:22:00;59.70;;;14.25;;
21560;SDS011;10941;53.590;9.960;2023-06-04T03:24:30;66.30;;;9.82;;
21560;SDS011;10941;53.590;9.960;2023-06-04T03:26:56;59.05;;;6.80;;
21560;SDS011;10941;53.590;9.960;2023-06-04T03:29:23;58.05;;;6.45;;
21560;SDS011;10941;53.590;9.960;2023-06-04T03:31:49;55.67;;;6.35;;
21560;SDS011;10941;53.590;9.960;2023-06-04T03:34:16;56.40;;;6.63;;
21560;SDS011;10941;53.590;9.960;2023-06-04T03:36:42;56.85;;;7.53;;
21560;SDS011;10941;53.590;9.960;2023-06-04T03:39:08;58.03;;;8.38;;
21560;SDS011;10941;53.590;9.960;2023-06-04T03:41:35;55.58;;;6.88;;
21560;SDS011;10941;53.590;9.960;2023-06-04T03:44:01;57.17;;;8.30;;
21560;SDS011;10941;53.590;9.960;2023-06-04T03:46:28;58.05;;;8.85;;
21560;SDS011;10941;53.590;9.960;2023-06-04T03:48:58;57.13;;;9.23;;
21560;SDS011;10941;53.590;9.960;2023-06-04T03:51:25;58.03;;;9.25;;
21560;SDS011;10941;53.590;9.960;2023-06-04T03:53:51;57.85;;;8.13;;
21560;SDS011;10941;53.590;9.960;2023-06-04T03:56:17;58.40;;;9.82;;
21560;SDS011;10941;53.590;9.960;2023-06-04T03:58:44;56.58;;;7.60;;
21560;SDS011;10941;53.590;9.960;2023-06-04T04:01:11;56.42;;;7.38;;
21560;SDS011;10941;53.590;9.960;2023-06-04T04:03:37;56.25;;;7.10;;
21560;SDS011;10941;53.590;9.960;2023-06-04T04:06:04;58.92;;;9.88;;
21560;SDS011;10941;53.590;9.960;2023-06-04T04:08:30;58.50;;;12.63;;
21560;SDS011;10941;53.590;9.960;2023-06-04T04:10:57;58.72;;;11.77;;
21560;SDS011;10941;53.590;9.960;2023-06-04T04:13:23;58.67;;;9.35;;
21560;SDS011;10941;53.590;9.960;2023-06-04T04:15:50;60.20;;;12.40;;
21560;SDS011;10941;53.590;9.960;2023-06-04T04:18:18;65.20;;;8.95;;
21560;SDS011;10941;53.590;9.960;2023-06-04T04:20:45;59.28;;;9.10;;
21560;SDS011;10941;53.590;9.960;2023-06-04T04:23:12;59.08;;;9.38;;
21560;SDS011;10941;53.590;9.960;2023-06-04T04:25:39;58.55;;;9.75;;
21560;SDS011;10941;53.590;9.960;2023-06-04T04:28:06;59.70;;;10.23;;
21560;SDS011;10941;53.590;9.960;2023-06-04T04:30:33;59.83;;;11.25;;
21560;SDS011;10941;53.590;9.960;2023-06-04T04:33:00;57.63;;;9.00;;
21560;SDS011;10941;53.590;9.960;2023-06-04T04:35:27;58.75;;;11.48;;
21560;SDS011;10941;53.590;9.960;2023-06-04T04:37:54;57.25;;;9.40;;
21560;SDS011;10941;53.590;9.960;2023-06-04T04:40:21;58.45;;;9.98;;
21560;SDS011;10941;53.590;9.960;2023-06-04T04:42:47;57.65;;;7.47;;
21560;SDS011;10941;53.590;9.960;2023-06-04T04:45:13;58.75;;;10.43;;
21560;SDS011;10941;53.590;9.960;2023-06-04T04:47:40;58.78;;;10.20;;
21560;SDS011;10941;53.590;9.960;2023-06-04T04:50:06;59.30;;;10.27;;
21560;SDS011;10941;53.590;9.960;2023-06-04T04:52:33;58.58;;;10.52;;
21560;SDS011;10941;53.590;9.960;2023-06-04T04:54:59;66.38;;;11.65;;
21560;SDS011;10941;53.590;9.960;2023-06-04T04:57:26;58.42;;;10.68;;
21560;SDS011;10941;53.590;9.960;2023-06-04T04:59:52;58.70;;;9.50;;
21560;SDS011;10941;53.590;9.960;2023-06-04T05:02:19;56.97;;;7.45;;
21560;SDS011;10941;53.590;9.960;2023-06-04T05:04:45;57.67;;;9.32;;
21560;SDS011;10941;53.590;9.960;2023-06-04T05:07:11;59.40;;;10.00;;
21560;SDS011;10941;53.590;9.960;2023-06-04T05:09:38;62.13;;;11.00;;
21560;SDS011;10941;53.590;9.960;2023-06-04T05:12:04;61.35;;;9.35;;
21560;SDS011;10941;53.590;9.960;2023-06-04T05:14:31;59.58;;;10.30;;
21560;SDS011;10941;53.590;9.960;2023-06-04T05:16:58;58.58;;;9.38;;
21560;SDS011;10941;53.590;9.960;2023-06-04T05:19:24;58.20;;;9.65;;
21560;SDS011;10941;53.590;9.960;2023-06-04T05:21:50;58.78;;;10.45;;
21560;SDS011;10941;53.590;9.960;2023-06-04T05:24:17;62.25;;;11.52;;
21560;SDS011;10941;53.590;9.960;2023-06-04T05:26:43;59.72;;;11.38;;
21560;SDS011;10941;53.590;9.960;2023-06-04T05:29:09;58.90;;;9.73;;
21560;SDS011;10941;53.590;9.960;2023-06-04T05:31:36;57.67;;;8.70;;
21560;SDS011;10941;53.590;9.960;2023-06-04T05:34:05;56.60;;;8.45;;
21560;SDS011;10941;53.590;9.960;2023-06-04T05:36:31;64.55;;;10.13;;
21560;SDS011;10941;53.590;9.960;2023-06-04T05:38:57;64.50;;;9.93;;
21560;SDS011;10941;53.590;9.960;2023-06-04T05:41:28;65.63;;;17.75;;
21560;SDS011;10941;53.590;9.960;2023-06-04T05:43:54;63.53;;;10.73;;
21560;SDS011;10941;53.590;9.960;2023-06-04T05:46:20;67.80;;;14.27;;
21560;SDS011;10941;53.590;9.960;2023-06-04T05:48:47;62.05;;;14.38;;
21560;SDS011;10941;53.590;9.960;2023-06-04T05:51:13;64.38;;;15.88;;
21560;SDS011;10941;53.590;9.960;2023-06-04T05:53:40;61.25;;;9.50;;
21560;SDS011;10941;53.590;9.960;2023-06-04T05:56:06;60.85;;;10.10;;
21560;SDS011;10941;53.590;9.960;2023-06-04T05:58:33;59.55;;;8.80;;
21560;SDS011;10941;53.590;9.960;2023-06-04T06:01:00;57.33;;;6.55;;
21560;SDS011;10941;53.590;9.960;2023-06-04T06:03:26;58.88;;;7.57;;
21560;SDS011;10941;53.590;9.960;2023-06-04T06:05:53;56.72;;;7.10;;
21560;SDS011;10941;53.590;9.960;2023-06-04T06:08:20;63.30;;;7.15;;
21560;SDS011;10941;53.590;9.960;2023-06-04T06:10:47;59.35;;;7.22;;
21560;SDS011;10941;53.590;9.960;2023-06-04T06:13:13;57.60;;;6.18;;
21560;SDS011;10941;53.590;9.960;2023-06-04T06:15:40;58.80;;;7.65;;
21560;SDS011;10941;53.590;9.960;2023-06-04T06:18:07;57.63;;;7.25;;
21560;SDS011;10941;53.590;9.960;2023-06-04T06:20:34;59.95;;;7.05;;
21560;SDS011;10941;53.590;9.960;2023-06-04T06:23:06;59.17;;;8.13;;
21560;SDS011;10941;53.590;9.960;2023-06-04T06:25:33;60.10;;;7.80;;
21560;SDS011;10941;53.590;9.960;2023-06-04T06:27:59;59.08;;;7.85;;
21560;SDS011;10941;53.590;9.960;2023-06-04T06:30:26;57.90;;;8.52;;
21560;SDS011;10941;53.590;9.960;2023-06-04T06:32:52;57.72;;;8.30;;
21560;SDS011;10941;53.590;9.960;2023-06-04T06:35:19;60.63;;;10.02;;
21560;SDS011;10941;53.590;9.960;2023-06-04T06:37:45;58.95;;;10.02;;
21560;SDS011;10941;53.590;9.960;2023-06-04T06:40:11;60.95;;;9.60;;
21560;SDS011;10941;53.590;9.960;2023-06-04T06:42:38;56.97;;;9.10;;
21560;SDS011;10941;53.590;9.960;2023-06-04T06:45:05;57.55;;;8.50;;
21560;SDS011;10941;53.590;9.960;2023-06-04T06:47:31;58.15;;;8.38;;
21560;SDS011;10941;53.590;9.960;2023-06-04T06:49:58;63.45;;;8.95;;
21560;SDS011;10941;53.590;9.960;2023-06-04T06:52:24;58.15;;;7.07;;
21560;SDS011;10941;53.590;9.960;2023-06-04T06:54:50;57.40;;;8.10;;
21560;SDS011;10941;53.590;9.960;2023-06-04T06:57:18;56.20;;;6.35;;
21560;SDS011;10941;53.590;9.960;2023-06-04T06:59:44;55.58;;;6.18;;
21560;SDS011;10941;53.590;9.960;2023-06-04T07:02:10;54.65;;;5.25;;
21560;SDS011;10941;53.590;9.960;2023-06-04T07:04:37;56.13;;;6.50;;
21560;SDS011;10941;53.590;9.960;2023-06-04T07:07:03;54.78;;;6.05;;
21560;SDS011;10941;53.590;9.960;2023-06-04T07:09:31;56.40;;;6.32;;
21560;SDS011;10941;53.590;9.960;2023-06-04T07:11:57;56.53;;;5.68;;
21560;SDS011;10941;53.590;9.960;2023-06-04T07:14:23;53.40;;;5.03;;
21560;SDS011;10941;53.590;9.960;2023-06-04T07:16:52;54.65;;;5.55;;
21560;SDS011;10941;53.590;9.960;2023-06-04T07:19:18;54.95;;;6.80;;
21560;SDS011;10941;53.590;9.960;2023-06-04T07:21:45;53.60;;;6.10;;
21560;SDS011;10941;53.590;9.960;2023-06-04T07:24:11;55.60;;;5.95;;
21560;SDS011;10941;53.590;9.960;2023-06-04T07:26:37;56.20;;;5.93;;
21560;SDS011;10941;53.590;9.960;2023-06-04T07:29:04;54.28;;;6.35;;
21560;SDS011;10941;53.590;9.960;2023-06-04T07:31:30;55.47;;;7.25;;
21560;SDS011;10941;53.590;9.960;2023-06-04T07:33:57;54.97;;;7.97;;
21560;SDS011;10941;53.590;9.960;2023-06-04T07:36:23;57.92;;;18.30;;
21560;SDS011;10941;53.590;9.960;2023-06-04T07:38:49;62.25;;;11.73;;
21560;SDS011;10941;53.590;9.960;2023-06-04T07:41:16;56.20;;;11.77;;
21560;SDS011;10941;53.590;9.960;2023-06-04T07:43:42;63.47;;;14.95;;
21560;SDS011;10941;53.590;9.960;2023-06-04T07:46:09;65.60;;;13.10;;
21560;SDS011;10941;53.590;9.960;2023-06-04T07:48:36;59.15;;;13.82;;
21560;SDS011;10941;53.590;9.960;2023-06-04T07:51:02;57.47;;;10.95;;
21560;SDS011;10941;53.590;9.960;2023-06-04T07:53:32;56.53;;;9.80;;
21560;SDS011;10941;53.590;9.960;2023-06-04T07:55:58;57.67;;;10.07;;
21560;SDS011;10941;53.590;9.960;2023-06-04T07:58:24;59.67;;;13.13;;
21560;SDS011;10941;53.590;9.960;2023-06-04T08:00:51;64.53;;;26.40;;
21560;SDS011;10941;53.590;9.960;2023-06-04T08:03:18;59.78;;;11.57;;
21560;SDS011;10941;53.590;9.960;2023-06-04T08:05:45;69.75;;;32.92;;
21560;SDS011;10941;53.590;9.960;2023-06-04T08:08:12;71.30;;;24.92;;
21560;SDS011;10941;53.590;9.960;2023-06-04T08:10:41;71.05;;;32.42;;
21560;SDS011;10941;53.590;9.960;2023-06-04T08:13:07;102.18;;;91.28;;
21560;SDS011;10941;53.590;9.960;2023-06-04T08:15:36;64.30;;;24.30;;
21560;SDS011;10941;53.590;9.960;2023-06-04T08:18:02;119.00;;;107.80;;
21560;SDS011;10941;53.590;9.960;2023-06-04T08:20:29;121.35;;;109.78;;
21560;SDS011;10941;53.590;9.960;2023-06-04T08:22:55;80.43;;;51.35;;
21560;SDS011;10941;53.590;9.960;2023-06-04T08:25:21;71.93;;;29.92;;
21560;SDS011;10941;53.590;9.960;2023-06-04T08:27:48;75.25;;;30.30;;
21560;SDS011;10941;53.590;9.960;2023-06-04T08:30:14;90.57;;;76.20;;
21560;SDS011;10941;53.590;9.960;2023-06-04T08:32:41;84.32;;;59.20;;
21560;SDS011;10941;53.590;9.960;2023-06-04T08:35:07;170.65;;;156.93;;
21560;SDS011;10941;53.590;9.960;2023-06-04T08:37:35;125.10;;;113.57;;
21560;SDS011;10941;53.590;9.960;2023-06-04T08:40:01;117.30;;;106.00;;
21560;SDS011;10941;53.590;9.960;2023-06-04T08:42:30;135.75;;;123.57;;
21560;SDS011;10941;53.590;9.960;2023-06-04T08:44:57;128.93;;;117.40;;
21560;SDS011;10941;53.590;9.960;2023-06-04T08:47:24;704.08;;;661.92;;
21560;SDS011;10941;53.590;9.960;2023-06-04T08:49:52;66.45;;;25.90;;
21560;SDS011;10941;53.590;9.960;2023-06-04T08:52:18;90.30;;;74.70;;
21560;SDS011;10941;53.590;9.960;2023-06-04T08:54:49;73.93;;;47.00;;
21560;SDS011;10941;53.590;9.960;2023-06-04T08:57:17;83.82;;;60.50;;
21560;SDS011;10941;53.590;9.960;2023-06-04T08:59:44;90.40;;;80.35;;
21560;SDS011;10941;53.590;9.960;2023-06-04T09:02:11;112.20;;;101.07;;
21560;SDS011;10941;53.590;9.960;2023-06-04T09:04:38;113.45;;;101.93;;
21560;SDS011;10941;53.590;9.960;2023-06-04T09:07:05;83.70;;;59.55;;
21560;SDS011;10941;53.590;9.960;2023-06-04T09:09:32;89.82;;;71.53;;
21560;SDS011;10941;53.590;9.960;2023-06-04T09:12:02;110.25;;;99.13;;
21560;SDS011;10941;53.590;9.960;2023-06-04T09:14:30;69.30;;;27.50;;
21560;SDS011;10941;53.590;9.960;2023-06-04T09:16:56;80.82;;;48.72;;
21560;SDS011;10941;53.590;9.960;2023-06-04T09:19:24;77.20;;;45.38;;
21560;SDS011;10941;53.590;9.960;2023-06-04T09:21:51;517.17;;;482.83;;
21560;SDS011;10941;53.590;9.960;2023-06-04T09:24:18;490.98;;;459.25;;
21560;SDS011;10941;53.590;9.960;2023-06-04T09:26:46;617.63;;;576.75;;
21560;SDS011;10941;53.590;9.960;2023-06-04T09:29:12;288.30;;;268.73;;
21560;SDS011;10941;53.590;9.960;2023-06-04T09:31:38;250.32;;;231.88;;
21560;SDS011;10941;53.590;9.960;2023-06-04T09:34:05;401.85;;;374.98;;
21560;SDS011;10941;53.590;9.960;2023-06-04T09:36:33;750.33;;;698.63;;
21560;SDS011;10941;53.590;9.960;2023-06-04T09:39:04;798.83;;;740.03;;
21560;SDS011;10941;53.590;9.960;2023-06-04T09:41:30;615.25;;;574.05;;
21560;SDS011;10941;53.590;9.960;2023-06-04T09:44:00;542.93;;;505.90;;
21560;SDS011;10941;53.590;9.960;2023-06-04T09:46:28;59.17;;;15.57;;
21560;SDS011;10941;53.590;9.960;2023-06-04T09:49:01;72.23;;;35.30;;
21560;SDS011;10941;53.590;9.960;2023-06-04T09:51:28;119.73;;;108.13;;
21560;SDS011;10941;53.590;9.960;2023-06-04T09:53:55;168.00;;;153.53;;
21560;SDS011;10941;53.590;9.960;2023-06-04T09:56:22;211.43;;;195.23;;
21560;SDS011;10941;53.590;9.960;2023-06-04T09:58:48;210.37;;;193.83;;
21560;SDS011;10941;53.590;9.960;2023-06-04T10:01:15;104.50;;;92.53;;
21560;SDS011;10941;53.590;9.960;2023-06-04T10:03:42;355.30;;;332.13;;
21560;SDS011;10941;53.590;9.960;2023-06-04T10:06:13;452.47;;;423.93;;
21560;SDS011;10941;53.590;9.960;2023-06-04T10:08:41;598.97;;;556.50;;
21560;SDS011;10941;53.590;9.960;2023-06-04T10:11:08;498.40;;;466.13;;
21560;SDS011;10941;53.590;9.960;2023-06-04T10:13:36;486.43;;;448.37;;
21560;SDS011;10941;53.590;9.960;2023-06-04T10:16:04;786.60;;;723.07;;
21560;SDS011;10941;53.590;9.960;2023-06-04T10:18:32;548.67;;;512.37;;
21560;SDS011;10941;53.590;9.960;2023-06-04T10:20:58;972.30;;;891.90;;
21560;SDS011;10941;53.590;9.960;2023-06-04T10:23:25;1016.73;;;921.47;;
21560;SDS011;10941;53.590;9.960;2023-06-04T10:25:52;993.23;;;907.37;;
21560;SDS011;10941;53.590;9.960;2023-06-04T10:28:22;1181.03;;;999.90;;
21560;SDS011;10941;53.590;9.960;2023-06-04T10:30:48;1015.07;;;910.13;;
21560;SDS011;10941;53.590;9.960;2023-06-04T10:33:17;847.93;;;771.97;;
21560;SDS011;10941;53.590;9.960;2023-06-04T10:35:45;348.63;;;320.67;;
21560;SDS011;10941;53.590;9.960;2023-06-04T10:38:12;760.70;;;700.63;;
21560;SDS011;10941;53.590;9.960;2023-06-04T10:40:39;461.60;;;426.03;;
21560;SDS011;10941;53.590;9.960;2023-06-04T10:43:06;942.93;;;836.33;;
21560;SDS011;10941;53.590;9.960;2023-06-04T10:45:33;121.83;;;68.70;;
21560;SDS011;10941;53.590;9.960;2023-06-04T10:48:00;72.97;;;5.90;;
21560;SDS011;10941;53.590;9.960;2023-06-04T10:50:29;714.10;;;642.73;;
21560;SDS011;10941;53.590;9.960;2023-06-04T10:52:56;1341.53;;;999.90;;
21560;SDS011;10941;53.590;9.960;2023-06-04T10:55:24;1139.50;;;999.90;;
21560;SDS011;10941;53.590;9.960;2023-06-04T10:57:54;1418.20;;;999.90;;
21560;SDS011;10941;53.590;9.960;2023-06-04T11:00:21;1428.03;;;999.90;;
21560;SDS011;10941;53.590;9.960;2023-06-04T11:05:17;234.47;;;217.50;;
21560;SDS011;10941;53.590;9.960;2023-06-04T11:07:44;157.60;;;144.27;;
21560;SDS011;10941;53.590;9.960;2023-06-04T11:10:11;439.07;;;411.87;;
21560;SDS011;10941;53.590;9.960;2023-06-04T11:12:56;86.37;;;71.30;;
21560;SDS011;10941;53.590;9.960;2023-06-04T11:15:22;213.07;;;196.83;;
21560;SDS011;10941;53.590;9.960;2023-06-04T11:17:49;196.43;;;181.37;;
21560;SDS011;10941;53.590;9.960;2023-06-04T11:20:17;70.97;;;37.80;;
21560;SDS011;10941;53.590;9.960;2023-06-04T11:22:50;75.50;;;49.10;;
21560;SDS011;10941;53.590;9.960;2023-06-04T11:25:16;76.20;;;46.77;;
21560;SDS011;10941;53.590;9.960;2023-06-04T11:27:43;74.63;;;48.57;;
21560;SDS011;10941;53.590;9.960;2023-06-04T11:30:09;78.40;;;61.13;;
21560;SDS011;10941;53.590;9.960;2023-06-04T11:32:37;104.53;;;92.67;;
21560;SDS011;10941;53.590;9.960;2023-06-04T11:35:04;62.30;;;24.10;;
21560;SDS011;10941;53.590;9.960;2023-06-04T11:37:31;57.43;;;12.13;;
21560;SDS011;10941;53.590;9.960;2023-06-04T11:39:58;65.30;;;24.37;;
21560;SDS011;10941;53.590;9.960;2023-06-04T11:42:27;62.93;;;23.73;;
21560;SDS011;10941;53.590;9.960;2023-06-04T11:44:56;73.57;;;48.63;;
21560;SDS011;10941;53.590;9.960;2023-06-04T11:47:23;60.07;;;18.93;;
21560;SDS011;10941;53.590;9.960;2023-06-04T11:49:56;61.70;;;24.80;;
21560;SDS011;10941;53.590;9.960;2023-06-04T11:52:22;58.57;;;14.90;;
21560;SDS011;10941;53.590;9.960;2023-06-04T11:54:49;53.30;;;5.50;;
21560;SDS011;10941;53.590;9.960;2023-06-04T11:57:15;53.17;;;4.90;;
21560;SDS011;10941;53.590;9.960;2023-06-04T11:59:42;53.50;;;4.63;;
21560;SDS011;10941;53.590;9.960;2023-06-04T12:02:08;53.20;;;5.30;;
21560;SDS011;10941;53.590;9.960;2023-06-04T12:04:34;55.67;;;8.27;;
21560;SDS011;10941;53.590;9.960;2023-06-04T12:07:01;52.97;;;4.90;;
21560;SDS011;10941;53.590;9.960;2023-06-04T12:09:30;53.57;;;4.50;;
21560;SDS011;10941;53.590;9.960;2023-06-04T12:11:58;53.43;;;6.00;;
21560;SDS011;10941;53.590;9.960;2023-06-04T12:14:25;54.00;;;5.47;;
21560;SDS011;10941;53.590;9.960;2023-06-04T12:16:55;52.87;;;4.60;;
21560;SDS011;10941;53.590;9.960;2023-06-04T12:19:22;55.20;;;6.97;;
21560;SDS011;10941;53.590;9.960;2023-06-04T12:21:58;54.90;;;4.90;;
21560;SDS011;10941;53.590;9.960;2023-06-04T12:24:27;54.20;;;4.53;;
21560;SDS011;10941;53.590;9.960;2023-06-04T12:27:03;55.53;;;4.50;;
21560;SDS011;10941;53.590;9.960;2023-06-04T12:29:29;52.57;;;4.20;;
21560;SDS011;10941;53.590;9.960;2023-06-04T12:32:03;57.30;;;12.70;;
21560;SDS011;10941;53.590;9.960;2023-06-04T12:34:31;54.97;;;7.50;;
21560;SDS011;10941;53.590;9.960;2023-06-04T12:36:57;53.07;;;3.90;;
21560;SDS011;10941;53.590;9.960;2023-06-04T12:39:24;53.17;;;4.70;;
21560;SDS011;10941;53.590;9.960;2023-06-04T12:41:50;51.70;;;3.17;;
21560;SDS011;10941;53.590;9.960;2023-06-04T12:44:16;55.20;;;4.23;;
21560;SDS011;10941;53.590;9.960;2023-06-04T12:46:43;51.67;;;3.43;;
21560;SDS011;10941;53.590;9.960;2023-06-04T12:49:09;55.27;;;8.77;;
21560;SDS011;10941;53.590;9.960;2023-06-04T12:51:35;55.83;;;5.80;;
21560;SDS011;10941;53.590;9.960;2023-06-04T12:54:04;57.72;;;14.13;;
21560;SDS011;10941;53.590;9.960;2023-06-04T12:56:30;53.37;;;5.47;;
21560;SDS011;10941;53.590;9.960;2023-06-04T12:58:57;53.40;;;4.60;;
21560;SDS011;10941;53.590;9.960;2023-06-04T13:01:23;53.60;;;5.10;;
21560;SDS011;10941;53.590;9.960;2023-06-04T13:03:50;53.87;;;5.50;;
21560;SDS011;10941;53.590;9.960;2023-06-04T13:06:16;57.07;;;10.77;;
21560;SDS011;10941;53.590;9.960;2023-06-04T13:08:42;57.37;;;13.17;;
21560;SDS011;10941;53.590;9.960;2023-06-04T13:11:09;55.67;;;9.80;;
21560;SDS011;10941;53.590;9.960;2023-06-04T13:13:36;56.20;;;12.73;;
21560;SDS011;10941;53.590;9.960;2023-06-04T13:16:03;59.63;;;17.93;;
21560;SDS011;10941;53.590;9.960;2023-06-04T13:18:30;82.72;;;66.03;;
21560;SDS011;10941;53.590;9.960;2023-06-04T13:20:56;61.27;;;19.57;;
21560;SDS011;10941;53.590;9.960;2023-06-04T13:23:22;70.43;;;44.70;;
21560;SDS011;10941;53.590;9.960;2023-06-04T13:25:49;74.68;;;53.67;;
21560;SDS011;10941;53.590;9.960;2023-06-04T13:28:16;107.40;;;87.82;;
21560;SDS011;10941;53.590;9.960;2023-06-04T13:30:43;68.32;;;31.55;;
21560;SDS011;10941;53.590;9.960;2023-06-04T13:33:10;69.90;;;45.53;;
21560;SDS011;10941;53.590;9.960;2023-06-04T13:35:36;66.47;;;31.75;;
21560;SDS011;10941;53.590;9.960;2023-06-04T13:38:05;65.97;;;24.85;;
21560;SDS011;10941;53.590;9.960;2023-06-04T13:40:35;66.03;;;18.15;;
21560;SDS011;10941;53.590;9.960;2023-06-04T13:43:02;64.47;;;27.67;;
21560;SDS011;10941;53.590;9.960;2023-06-04T13:45:28;315.42;;;294.73;;
21560;SDS011;10941;53.590;9.960;2023-06-04T13:47:54;245.88;;;228.95;;
21560;SDS011;10941;53.590;9.960;2023-06-04T13:50:24;243.07;;;225.75;;
21560;SDS011;10941;53.590;9.960;2023-06-04T13:52:50;708.45;;;661.95;;
21560;SDS011;10941;53.590;9.960;2023-06-04T13:55:17;83.88;;;63.08;;
21560;SDS011;10941;53.590;9.960;2023-06-04T13:57:44;203.45;;;188.00;;
21560;SDS011;10941;53.590;9.960;2023-06-04T14:00:10;305.83;;;285.42;;
21560;SDS011;10941;53.590;9.960;2023-06-04T14:02:39;622.05;;;581.90;;
21560;SDS011;10941;53.590;9.960;2023-06-04T14:05:05;91.78;;;79.90;;
21560;SDS011;10941;53.590;9.960;2023-06-04T14:07:31;237.52;;;220.32;;
21560;SDS011;10941;53.590;9.960;2023-06-04T14:09:58;74.57;;;35.50;;
21560;SDS011;10941;53.590;9.960;2023-06-04T14:12:24;74.60;;;45.60;;
21560;SDS011;10941;53.590;9.960;2023-06-04T14:14:50;83.97;;;53.53;;
21560;SDS011;10941;53.590;9.960;2023-06-04T14:17:17;358.20;;;334.17;;
21560;SDS011;10941;53.590;9.960;2023-06-04T14:19:43;236.95;;;220.30;;
21560;SDS011;10941;53.590;9.960;2023-06-04T14:22:10;220.75;;;204.80;;
21560;SDS011;10941;53.590;9.960;2023-06-04T14:24:40;512.90;;;480.75;;
21560;SDS011;10941;53.590;9.960;2023-06-04T14:27:07;900.22;;;837.13;;